FYGA4: White River At Fayetteville, AR

                                SHEF ID:       FYGA4     White River near Fayetteville, A
STATION TYPE: Stream Gauge

PRECIP STAGE RIV-FLOW WTR-TEMP DIS-OXY PH CONDUCT BAT-LOAD
in ft cfs F mg/l su umho/cm volt
Ccp-Rev Ccp-Rev Ccp-Rev Ccp-Rev Ccp-Rev Ccp-Rev Ccp-Rev Ccp-Rev
(America/Chicago)
11/02 00:00 0.00 2.41 118 54.99 8.26 7.84 177 12.65
11/02 01:00 0.00 2.40 116 54.48 8.26 7.83 178 12.57
11/02 01:00 0.00 2.39 114 54.75 8.28 7.82 179 12.57
11/02 02:00 0.00 2.39 114 54.27 8.30 7.81 180 12.49
11/02 03:00 0.00 2.39 114 54.03 8.28 7.82 180 12.49
11/02 04:00 0.00 2.38 112 53.92 8.31 7.82 181 12.41
11/02 05:00 0.00 2.38 112 53.78 8.24 7.81 180 12.41
11/02 06:00 0.00 2.37 110 53.60 8.26 7.80 181 12.41
11/02 07:00 0.00 2.37 110 53.46 8.25 7.81 181 12.41
11/02 08:00 0.00 2.36 108 53.40 8.37 7.84 181 13.37
11/02 09:00 0.00 2.36 108 53.58 8.54 7.84 181 13.60
11/02 10:00 0.00 2.35 106 54.34 8.81 7.87 180 14.64
11/02 11:00 0.00 2.34 104 55.31 8.95 7.89 180 14.08
11/02 12:00 0.00 2.34 104 56.37 9.02 7.91 181 14.00
11/02 13:00 0.00 2.34 104 57.34 9.07 7.92 182 13.92
11/02 14:00 0.00 2.34 104 57.81 9.04 7.94 181 13.84
11/02 15:00 0.00 2.33 102 57.56 8.97 7.93 180 13.21
11/02 16:00 0.00 2.33 102 57.02 8.76 7.93 179 12.97
11/02 17:00 0.00 2.33 102 56.61 8.60 7.90 179 12.81
11/02 18:00 0.00 2.34 104 56.34 8.34 7.88 180 12.81
11/02 19:00 0.00 2.34 104 56.25 8.17 7.88 179 12.73
11/02 20:00 0.00 2.33 102 56.12 8.11 7.86 178 12.73
11/02 21:00 0.00 2.33 102 55.94 8.05 7.86 179 12.65
11/02 22:00 0.00 2.32 100 55.74 8.02 7.85 180 12.65
11/02 23:00 ---- ---- ---- 55.56 8.01 ---- 181 ----
Data processed at Mon 03Nov2025 05:10 GMT

NOTICE: If you are parsing this page

Please convert to using our Data API. Starting January 1st, 2026 we will be migrating to: https://water.usace.army.mil with modern pages rendered in JavaScript. You will no longer be able to scrape this page! CWMSDataAPI (CDA)

Timeseries IDs (TSIDs)

TSIDs used from left to right in the data table
FAYE.Precip-Inc.Total.1Hour.1Hour.Ccp-Rev
FAYE.Stage.Inst.1Hour.0.Ccp-Rev
FAYE.Flow.Inst.1Hour.0.Ccp-Rev
FAYE.Temp-Water.Inst.1Hour.0.Ccp-Rev
FAYE.Conc-DO.Inst.1Hour.0.Ccp-Rev
FAYE.pH.Inst.1Hour.0.Ccp-Rev
FAYE.Cond-Water.Inst.1Hour.0.Ccp-Rev
FAYE.Volt-Battery Load.Inst.1Hour.0.Ccp-Rev

                            

All information presented herein is the property of the government of the United States of America and may be revised or deleted at any time without prior notice. Dissemination of this information without the expressed written consent of the Public Affairs Office, Tulsa District U.S. Army Corps of Engineers is strictly prohibited. These data are gathered electronically and, as presented, have NOT undergone any form of quality control. These data are NOT guaranteed to be valid or correct.